Date,TemperatureHighF,TemperatureAvgF,TemperatureLowF,DewpointHighF,DewpointAvgF,DewpointLowF,HumidityHigh,HumidityAvg,HumidityLow,PressureMaxIn,PressureMinIn,WindSpeedMaxMPH,WindSpeedAvgMPH,GustSpeedMaxMPH,PrecipitationSumIn
2013-4-1,47,33,24,24,21,15,90,64,31,30.22,30.11,19,7,0,0.00
2013-4-2,53,36,19,22,17,13,83,49,22,30.16,30.06,24,9,0,0.00
2013-4-3,70,48,27,32,23,17,75,43,14,30.13,29.87,37,17,0,0.00
2013-4-4,52,39,25,25,15,6,71,41,19,30.19,30.00,27,12,0,0.00
2013-4-5,66,46,30,30,24,14,65,44,22,30.00,29.50,27,14,0,0.00
2013-4-6,64,52,40,44,32,20,97,54,19,29.80,29.64,38,19,0,0.00
2013-4-7,56,40,29,41,32,29,98,76,40,29.79,29.56,19,10,0,0.00
2013-4-8,41,32,15,38,31,14,98,96,80,30.07,29.56,33,13,0,0.00
2013-4-9,17,13,9,16,11,6,97,91,83,30.28,30.01,7,5,0,0.00
2013-4-10,25,20,15,21,18,14,98,91,76,30.21,29.90,5,4,0,0.00
2013-4-11,30,24,18,26,21,17,98,90,72,29.93,29.74,21,6,0,0.00
2013-4-12,28,27,27,26,25,23,94,91,82,29.87,29.80,12,7,0,0.00
2013-4-13,39,31,23,33,28,21,98,88,72,29.91,29.38,31,17,0,0.00
2013-4-14,36,32,22,34,26,16,98,82,50,29.73,29.32,46,26,0,0.00
2013-4-15,33,27,20,21,17,14,84,68,47,30.08,29.69,42,22,0,0.00
2013-4-16,31,27,23,28,22,16,98,83,57,30.23,30.03,18,8,0,0.00
2013-4-17,28,25,22,26,23,21,98,95,79,30.23,30.10,23,15,0,0.00
2013-4-18,35,26,21,22,18,14,97,72,44,30.14,29.96,38,21,0,0.00
2013-4-19,42,32,23,25,19,15,87,62,35,30.02,29.88,20,10,0,0.00
2013-4-20,55,37,26,36,26,16,97,68,41,29.98,29.83,29,16,0,0.00
2013-4-21,39,37,31,39,36,31,98,97,91,29.94,29.86,17,10,0,0.00
2013-4-22,28,25,20,25,20,17,98,83,67,30.36,30.25,27,15,0,0.00
2013-4-23,36,24,12,20,16,10,94,72,42,30.35,30.06,17,10,0,0.00
2013-4-24,42,33,24,32,22,16,98,64,36,30.12,29.99,52,20,0,0.00
2013-4-25,68,47,28,29,21,10,78,42,11,30.09,29.76,27,13,0,0.00
2013-4-26,70,54,38,31,24,19,61,33,16,30.11,29.89,14,7,0,0.00
2013-4-27,76,61,43,31,26,17,53,29,12,30.09,29.77,23,12,0,0.00
2013-4-28,67,58,45,43,31,25,80,38,21,29.93,29.70,35,16,0,0.00
2013-4-29,73,57,41,43,32,22,87,45,15,29.93,29.31,34,13,0,0.00
2013-4-30,54,46,39,37,24,15,78,45,23,30.13,29.54,40,21,0,0.00